createdAt,value
2023-11-25T00:00:58.328Z,99014.00
2023-11-25T00:03:25.775Z,99023.00
2023-11-25T00:05:53.271Z,99026.00
2023-11-25T00:08:20.672Z,99026.00
2023-11-25T00:10:48.766Z,99039.00
2023-11-25T00:13:18.949Z,99047.00
2023-11-25T00:15:46.228Z,99057.00
2023-11-25T00:18:14.295Z,99070.00
2023-11-25T00:20:41.776Z,99072.00
2023-11-25T00:23:09.150Z,99084.00
2023-11-25T00:25:39.559Z,99087.00
2023-11-25T00:28:08.614Z,99087.00
2023-11-25T00:30:36.217Z,99085.00
2023-11-25T00:33:05.716Z,99093.00
2023-11-25T00:35:33.469Z,99091.00
2023-11-25T00:38:00.752Z,99086.00
2023-11-25T00:40:28.642Z,99103.00
2023-11-25T00:42:56.130Z,99101.00
2023-11-25T00:45:26.664Z,99090.00
2023-11-25T00:47:58.091Z,99105.00
2023-11-25T00:50:26.557Z,99107.00
2023-11-25T00:52:54.255Z,99109.00
2023-11-25T00:55:22.083Z,99109.00
2023-11-25T00:57:49.691Z,99125.00
2023-11-25T01:00:18.166Z,99117.00
2023-11-25T01:02:46.326Z,99111.00
2023-11-25T01:05:14.572Z,99124.00
2023-11-25T01:07:42.117Z,99128.00
2023-11-25T01:10:11.530Z,99141.00
2023-11-25T01:12:38.927Z,99151.00
2023-11-25T01:15:08.765Z,99139.00
2023-11-25T01:17:36.121Z,99147.00
2023-11-25T01:20:05.263Z,99146.00
2023-11-25T01:22:32.666Z,99151.00
2023-11-25T01:25:00.257Z,99160.00
2023-11-25T01:27:28.499Z,99160.00
2023-11-25T01:29:56.119Z,99160.00
2023-11-25T01:32:23.751Z,99168.00
2023-11-25T01:34:53.748Z,99178.00
2023-11-25T01:37:23.164Z,99177.00
2023-11-25T01:39:50.824Z,99173.00
2023-11-25T01:42:18.672Z,99170.00
2023-11-25T01:44:45.972Z,99182.00
2023-11-25T01:47:14.554Z,99188.00
2023-11-25T01:49:43.563Z,99191.00
2023-11-25T01:52:11.506Z,99191.00
2023-11-25T01:54:39.523Z,99188.00
2023-11-25T01:57:09.219Z,99204.00
2023-11-25T01:59:36.991Z,99205.00
2023-11-25T02:02:07.382Z,99207.00
2023-11-25T02:04:35.323Z,99208.00
2023-11-25T02:07:03.030Z,99206.00
2023-11-25T02:09:30.496Z,99211.00
2023-11-25T02:12:03.127Z,99208.00
2023-11-25T02:14:30.882Z,99196.00
2023-11-25T02:16:59.032Z,99197.00
2023-11-25T02:19:27.714Z,99210.00
2023-11-25T02:21:57.289Z,99207.00
2023-11-25T02:24:28.173Z,99211.00
2023-11-25T02:27:05.978Z,99205.00
2023-11-25T02:29:34.467Z,99204.00
2023-11-25T02:32:04.050Z,99208.00
2023-11-25T02:34:32.247Z,99219.00
2023-11-25T02:37:00.004Z,99215.00
2023-11-25T02:39:28.940Z,99218.00
2023-11-25T02:41:56.503Z,99221.00
2023-11-25T02:44:23.939Z,99214.00
2023-11-25T02:46:51.552Z,99216.00
2023-11-25T02:49:22.636Z,99215.00
2023-11-25T02:51:57.423Z,99213.00
2023-11-25T02:54:26.002Z,99205.00
2023-11-25T02:56:53.430Z,99212.00
2023-11-25T02:59:20.893Z,99210.00
2023-11-25T03:01:53.952Z,99213.00
2023-11-25T03:04:24.988Z,99217.00
2023-11-25T03:06:53.172Z,99223.00
2023-11-25T03:09:23.122Z,99227.00
2023-11-25T03:11:51.630Z,99228.00
2023-11-25T03:14:20.644Z,99227.00
2023-11-25T03:16:50.790Z,99220.00
2023-11-25T03:19:19.707Z,99222.00
2023-11-25T03:21:47.072Z,99218.00
2023-11-25T03:24:15.369Z,99213.00
2023-11-25T03:26:45.208Z,99218.00
2023-11-25T03:29:12.582Z,99215.00
2023-11-25T03:31:46.986Z,99223.00
2023-11-25T03:34:14.497Z,99220.00
2023-11-25T03:36:41.864Z,99221.00
2023-11-25T03:39:11.234Z,99219.00
2023-11-25T03:41:38.710Z,99227.00
2023-11-25T03:44:07.805Z,99225.00
2023-11-25T03:46:35.385Z,99218.00
2023-11-25T03:49:03.182Z,99218.00
2023-11-25T03:51:30.731Z,99224.00
2023-11-25T03:53:58.101Z,99222.00
2023-11-25T03:56:25.446Z,99218.00
2023-11-25T03:58:52.892Z,99220.00
2023-11-25T04:01:20.589Z,99219.00
2023-11-25T04:03:48.050Z,99219.00
2023-11-25T04:06:15.698Z,99216.00
2023-11-25T04:08:43.001Z,99210.00
2023-11-25T04:11:10.949Z,99206.00
2023-11-25T04:13:38.885Z,99209.00
2023-11-25T04:16:06.418Z,99212.00
2023-11-25T04:18:34.751Z,99211.00
2023-11-25T04:21:02.694Z,99206.00
2023-11-25T04:23:31.927Z,99209.00
2023-11-25T04:25:59.838Z,99202.00
2023-11-25T04:28:27.490Z,99201.00
2023-11-25T04:30:55.165Z,99207.00
2023-11-25T04:33:22.603Z,99197.00
2023-11-25T04:35:50.080Z,99198.00
2023-11-25T04:38:20.094Z,99199.00
2023-11-25T04:40:47.332Z,99198.00
2023-11-25T04:43:14.599Z,99196.00
2023-11-25T04:45:42.238Z,99189.00
2023-11-25T04:48:09.756Z,99187.00
2023-11-25T04:50:37.046Z,99179.00
2023-11-25T04:53:04.320Z,99169.00
2023-11-25T04:55:31.609Z,99181.00
2023-11-25T04:57:59.141Z,99185.00
2023-11-25T05:00:26.480Z,99183.00
2023-11-25T05:05:45.072Z,99178.00
2023-11-25T05:08:12.383Z,99172.00
2023-11-25T05:10:39.529Z,99179.00
2023-11-25T05:13:08.300Z,99176.00
2023-11-25T05:15:36.762Z,99174.00
2023-11-25T05:18:04.220Z,99168.00
2023-11-25T05:20:31.526Z,99168.00
2023-11-25T05:22:58.900Z,99164.00
2023-11-25T05:25:26.381Z,99161.00
2023-11-25T05:27:53.700Z,99148.00
2023-11-25T05:30:21.566Z,99155.00
2023-11-25T05:32:49.254Z,99155.00
2023-11-25T05:35:17.554Z,99158.00
2023-11-25T05:37:45.947Z,99152.00
2023-11-25T05:40:16.349Z,99148.00
2023-11-25T05:42:50.097Z,99147.00
2023-11-25T05:45:19.799Z,99143.00
2023-11-25T05:47:48.333Z,99143.00
2023-11-25T05:50:22.413Z,99147.00
2023-11-25T05:52:50.793Z,99145.00
2023-11-25T05:55:21.054Z,99143.00
2023-11-25T05:57:52.488Z,99142.00
2023-11-25T06:00:23.149Z,99146.00
2023-11-25T06:02:51.019Z,99147.00
2023-11-25T06:05:19.214Z,99148.00
2023-11-25T06:07:46.840Z,99144.00
2023-11-25T06:10:14.708Z,99153.00
2023-11-25T06:12:43.193Z,99155.00
2023-11-25T06:15:14.939Z,99164.00
2023-11-25T06:17:43.249Z,99153.00
2023-11-25T06:20:11.541Z,99155.00
2023-11-25T06:22:39.594Z,99154.00
2023-11-25T06:25:07.434Z,99151.00
2023-11-25T06:27:35.053Z,99149.00
2023-11-25T06:30:02.842Z,99147.00
2023-11-25T06:32:30.585Z,99148.00
2023-11-25T06:34:59.671Z,99154.00
2023-11-25T06:37:27.532Z,99152.00
2023-11-25T06:39:54.981Z,99138.00
2023-11-25T06:42:23.686Z,99131.00
2023-11-25T06:44:52.569Z,99150.00
2023-11-25T06:47:19.972Z,99144.00
2023-11-25T06:49:47.678Z,99137.00
2023-11-25T06:52:15.161Z,99126.00
2023-11-25T06:54:42.992Z,99124.00
2023-11-25T06:57:10.446Z,99122.00
2023-11-25T06:59:38.300Z,99110.00
2023-11-25T07:02:05.866Z,99107.00
2023-11-25T07:04:33.158Z,99117.00
2023-11-25T07:07:00.596Z,99111.00
2023-11-25T07:09:28.221Z,99116.00
2023-11-25T07:11:55.579Z,99103.00
2023-11-25T07:14:23.253Z,99115.00
2023-11-25T07:16:50.638Z,99108.00
2023-11-25T07:19:18.694Z,99111.00
2023-11-25T07:21:46.520Z,99108.00
2023-11-25T07:24:14.292Z,99112.00
2023-11-25T07:26:42.860Z,99104.00
2023-11-25T07:29:13.676Z,99110.00
2023-11-25T07:31:41.228Z,99100.00
2023-11-25T07:34:09.546Z,99103.00
2023-11-25T07:36:36.985Z,99095.00
2023-11-25T07:39:06.455Z,99100.00
2023-11-25T07:41:33.664Z,99102.00
2023-11-25T07:44:01.330Z,99105.00
2023-11-25T07:46:29.188Z,99104.00
2023-11-25T07:48:56.569Z,99104.00
2023-11-25T07:51:24.750Z,99106.00
2023-11-25T07:53:52.150Z,99095.00
2023-11-25T07:56:19.600Z,99099.00
2023-11-25T07:58:47.725Z,99090.00
2023-11-25T08:01:15.163Z,99092.00
2023-11-25T08:03:43.360Z,99092.00
2023-11-25T08:06:11.712Z,99091.00
2023-11-25T08:08:39.057Z,99082.00
2023-11-25T08:11:06.733Z,99079.00
2023-11-25T08:13:34.151Z,99076.00
2023-11-25T08:16:02.498Z,99073.00
2023-11-25T08:18:29.803Z,99060.00
2023-11-25T08:20:56.998Z,99048.00
2023-11-25T08:23:24.425Z,99052.00
2023-11-25T08:25:52.615Z,99050.00
2023-11-25T08:28:20.008Z,99053.00
2023-11-25T08:30:47.311Z,99047.00
2023-11-25T08:33:14.610Z,99049.00
2023-11-25T08:35:42.564Z,99036.00
2023-11-25T08:38:10.610Z,99030.00
2023-11-25T08:40:38.719Z,99031.00
2023-11-25T08:43:10.007Z,99028.00
2023-11-25T08:45:39.296Z,99025.00
2023-11-25T08:48:11.092Z,99035.00
2023-11-25T08:50:38.800Z,99034.00
2023-11-25T08:53:06.551Z,99030.00
2023-11-25T08:55:34.051Z,99030.00
2023-11-25T08:58:01.495Z,99030.00
2023-11-25T09:00:30.675Z,99023.00
2023-11-25T09:02:59.109Z,99023.00
2023-11-25T09:05:27.566Z,99024.00
2023-11-25T09:07:57.257Z,99030.00
2023-11-25T09:10:26.682Z,99031.00
2023-11-25T09:12:55.150Z,99032.00
2023-11-25T09:15:23.676Z,99039.00
2023-11-25T09:17:53.176Z,99044.00
2023-11-25T09:20:23.262Z,99039.00
2023-11-25T09:22:52.892Z,99040.00
2023-11-25T09:25:21.329Z,99038.00
2023-11-25T09:27:49.031Z,99052.00
2023-11-25T09:30:19.293Z,99049.00
2023-11-25T09:32:46.779Z,99062.00
2023-11-25T09:35:14.843Z,99053.00
2023-11-25T09:37:44.273Z,99059.00
2023-11-25T09:40:17.810Z,99044.00
2023-11-25T09:42:48.531Z,99044.00
2023-11-25T09:45:16.824Z,99047.00
2023-11-25T09:47:45.986Z,99040.00
2023-11-25T09:50:14.953Z,99036.00
2023-11-25T09:52:53.083Z,99029.00
2023-11-25T09:55:24.844Z,99037.00
2023-11-25T09:58:04.577Z,99041.00
2023-11-25T10:00:33.994Z,99050.00
2023-11-25T10:03:03.193Z,99047.00
2023-11-25T10:05:33.353Z,99041.00
2023-11-25T10:08:01.453Z,99047.00
2023-11-25T10:10:30.361Z,99051.00
2023-11-25T10:12:58.046Z,99062.00
2023-11-25T10:15:25.293Z,99051.00
2023-11-25T10:17:55.988Z,99049.00
2023-11-25T10:20:27.261Z,99035.00
2023-11-25T10:22:59.039Z,99036.00
2023-11-25T10:25:29.883Z,99034.00
2023-11-25T10:27:57.681Z,99036.00
2023-11-25T10:30:26.893Z,99049.00
2023-11-25T10:32:58.376Z,99028.00
2023-11-25T10:35:26.328Z,99040.00
2023-11-25T10:37:54.027Z,99036.00
2023-11-25T10:40:23.802Z,99035.00
2023-11-25T10:42:51.433Z,99022.00
2023-11-25T10:45:25.467Z,99026.00
2023-11-25T10:47:57.583Z,99018.00
2023-11-25T10:50:27.103Z,99016.00
2023-11-25T10:53:02.517Z,99026.00
2023-11-25T10:55:30.358Z,99020.00
2023-11-25T10:58:02.298Z,99017.00
2023-11-25T11:00:33.232Z,99025.00
2023-11-25T11:03:07.065Z,99020.00
2023-11-25T11:05:42.829Z,99019.00
2023-11-25T11:08:33.170Z,99031.00
2023-11-25T11:11:13.479Z,99023.00
2023-11-25T11:13:46.256Z,99025.00
2023-11-25T11:16:51.584Z,99026.00
2023-11-25T11:19:25.811Z,99023.00
2023-11-25T11:21:57.060Z,99013.00
2023-11-25T11:24:45.948Z,99018.00
2023-11-25T11:27:38.374Z,99020.00
2023-11-25T11:30:11.526Z,99023.00
2023-11-25T11:32:43.932Z,99022.00
2023-11-25T11:35:13.768Z,99018.00
2023-11-25T11:37:50.114Z,99011.00
2023-11-25T11:40:23.787Z,99015.00
2023-11-25T11:42:51.578Z,99016.00
2023-11-25T11:45:24.164Z,99008.00
2023-11-25T11:47:57.392Z,99025.00
2023-11-25T11:50:30.921Z,99024.00
2023-11-25T11:53:16.826Z,99028.00
2023-11-25T11:55:55.138Z,99025.00
2023-11-25T11:58:26.851Z,99028.00
2023-11-25T12:01:04.115Z,99024.00
2023-11-25T12:03:36.202Z,99022.00
2023-11-25T12:06:06.884Z,99027.00
2023-11-25T12:08:36.169Z,99025.00
2023-11-25T12:11:06.556Z,99025.00
2023-11-25T12:13:40.460Z,99027.00
2023-11-25T12:16:09.920Z,99025.00
2023-11-25T12:18:38.046Z,99023.00
2023-11-25T12:21:07.049Z,99021.00
2023-11-25T12:26:07.853Z,99013.00
2023-11-25T12:28:46.309Z,99027.00
2023-11-25T12:31:15.359Z,99027.00
2023-11-25T12:33:43.008Z,99035.00
2023-11-25T12:36:10.500Z,99036.00
2023-11-25T12:38:38.912Z,99037.00
2023-11-25T12:41:14.197Z,99029.00
2023-11-25T12:44:13.235Z,99038.00
2023-11-25T12:46:43.682Z,99039.00
2023-11-25T12:49:24.710Z,99042.00
2023-11-25T12:51:53.907Z,99040.00
2023-11-25T12:54:21.783Z,99035.00
2023-11-25T12:56:55.969Z,99057.00
2023-11-25T12:59:29.976Z,99038.00
2023-11-25T13:02:10.357Z,99037.00
2023-11-25T13:04:48.030Z,99036.00
2023-11-25T13:07:36.018Z,99037.00
2023-11-25T13:10:05.433Z,99042.00
2023-11-25T13:12:34.641Z,99041.00
2023-11-25T13:15:04.768Z,99041.00
2023-11-25T13:17:32.425Z,99052.00
2023-11-25T13:19:59.925Z,99056.00
2023-11-25T13:22:27.408Z,99053.00
2023-11-25T13:24:54.809Z,99049.00
2023-11-25T13:27:22.347Z,99053.00
2023-11-25T13:29:49.852Z,99056.00
2023-11-25T13:32:17.888Z,99058.00
2023-11-25T13:34:45.870Z,99055.00
2023-11-25T13:37:14.019Z,99067.00
2023-11-25T13:39:41.609Z,99072.00
2023-11-25T13:42:09.209Z,99068.00
2023-11-25T13:44:37.033Z,99066.00
2023-11-25T13:47:04.713Z,99065.00
2023-11-25T13:49:33.949Z,99063.00
2023-11-25T13:52:02.504Z,99068.00
2023-11-25T13:54:30.439Z,99069.00
2023-11-25T13:56:58.165Z,99076.00
2023-11-25T13:59:25.873Z,99078.00
2023-11-25T14:01:53.313Z,99077.00
2023-11-25T14:04:23.005Z,99075.00
2023-11-25T14:06:50.486Z,99083.00
2023-11-25T14:09:19.094Z,99087.00
2023-11-25T14:11:47.131Z,99093.00
2023-11-25T14:14:14.899Z,99096.00
2023-11-25T14:16:49.518Z,99092.00
2023-11-25T14:19:19.038Z,99100.00
2023-11-25T14:21:46.662Z,99106.00
2023-11-25T14:24:14.343Z,99101.00
2023-11-25T14:26:41.757Z,99112.00
2023-11-25T14:29:12.460Z,99110.00
2023-11-25T14:31:39.988Z,99105.00
2023-11-25T14:34:07.445Z,99113.00
2023-11-25T14:36:34.795Z,99119.00
2023-11-25T14:39:02.207Z,99126.00
2023-11-25T14:41:29.710Z,99127.00
2023-11-25T14:43:57.320Z,99134.00
2023-11-25T14:46:24.785Z,99131.00
2023-11-25T14:48:52.215Z,99132.00
2023-11-25T14:51:19.425Z,99138.00
2023-11-25T14:53:46.806Z,99146.00
2023-11-25T14:56:14.247Z,99160.00
2023-11-25T14:58:41.797Z,99162.00
2023-11-25T15:01:09.438Z,99159.00
2023-11-25T15:03:40.632Z,99159.00
2023-11-25T15:06:08.972Z,99165.00
2023-11-25T15:08:37.883Z,99170.00
2023-11-25T15:11:06.931Z,99172.00
2023-11-25T15:13:34.343Z,99176.00
2023-11-25T15:16:02.103Z,99171.00
2023-11-25T15:18:30.268Z,99171.00
2023-11-25T15:21:02.878Z,99172.00
2023-11-25T15:23:33.599Z,99175.00
2023-11-25T15:26:05.839Z,99181.00
2023-11-25T15:28:33.388Z,99187.00
2023-11-25T15:31:01.001Z,99193.00
2023-11-25T15:33:31.149Z,99197.00
2023-11-25T15:35:58.854Z,99198.00
2023-11-25T15:38:26.488Z,99212.00
2023-11-25T15:40:55.893Z,99205.00
2023-11-25T15:43:23.782Z,99214.00
2023-11-25T15:45:51.419Z,99215.00
2023-11-25T15:48:18.956Z,99221.00
2023-11-25T15:50:46.217Z,99225.00
2023-11-25T15:53:14.341Z,99228.00
2023-11-25T15:55:42.027Z,99228.00
2023-11-25T15:58:09.381Z,99230.00
2023-11-25T16:00:36.695Z,99229.00
2023-11-25T16:03:04.293Z,99224.00
2023-11-25T16:05:32.272Z,99228.00
2023-11-25T16:08:02.542Z,99243.00
2023-11-25T16:10:32.628Z,99242.00
2023-11-25T16:13:04.012Z,99247.00
2023-11-25T16:15:32.123Z,99247.00
2023-11-25T16:18:00.566Z,99252.00
2023-11-25T16:20:30.820Z,99253.00
2023-11-25T16:22:58.239Z,99258.00
2023-11-25T16:25:29.085Z,99258.00
2023-11-25T16:27:56.577Z,99260.00
2023-11-25T16:30:25.198Z,99259.00
2023-11-25T16:32:52.996Z,99265.00
2023-11-25T16:35:21.012Z,99267.00
2023-11-25T16:37:51.254Z,99274.00
2023-11-25T16:40:23.993Z,99284.00
2023-11-25T16:42:51.198Z,99286.00
2023-11-25T16:45:19.106Z,99279.00
2023-11-25T16:47:46.370Z,99279.00
2023-11-25T16:50:14.728Z,99278.00
2023-11-25T16:52:42.199Z,99284.00
2023-11-25T16:55:09.952Z,99277.00
2023-11-25T16:57:38.052Z,99280.00
2023-11-25T17:00:07.729Z,99273.00
2023-11-25T17:02:35.484Z,99287.00
2023-11-25T17:05:03.226Z,99290.00
2023-11-25T17:07:34.252Z,99305.00
2023-11-25T17:10:05.359Z,99299.00
2023-11-25T17:12:33.461Z,99300.00
2023-11-25T17:15:01.499Z,99296.00
2023-11-25T17:17:29.049Z,99317.00
2023-11-25T17:19:57.717Z,99314.00
2023-11-25T17:22:25.463Z,99315.00
2023-11-25T17:24:52.997Z,99324.00
2023-11-25T17:27:21.593Z,99340.00
2023-11-25T17:29:59.441Z,99341.00
2023-11-25T17:32:26.891Z,99349.00
2023-11-25T17:34:54.498Z,99352.00
2023-11-25T17:37:22.188Z,99353.00
2023-11-25T17:39:49.802Z,99363.00
2023-11-25T17:42:17.229Z,99364.00
2023-11-25T17:44:44.702Z,99363.00
2023-11-25T17:47:12.301Z,99364.00
2023-11-25T17:49:39.935Z,99371.00
2023-11-25T17:52:09.425Z,99385.00
2023-11-25T17:54:37.011Z,99388.00
2023-11-25T17:57:04.769Z,99399.00
2023-11-25T17:59:33.589Z,99408.00
2023-11-25T18:02:01.262Z,99399.00
2023-11-25T18:04:28.646Z,99404.00
2023-11-25T18:06:56.124Z,99400.00
2023-11-25T18:09:25.404Z,99402.00
2023-11-25T18:11:53.058Z,99403.00
2023-11-25T18:14:23.518Z,99403.00
2023-11-25T18:16:50.932Z,99410.00
2023-11-25T18:19:19.133Z,99404.00
2023-11-25T18:21:47.299Z,99412.00
2023-11-25T18:24:14.701Z,99418.00
2023-11-25T18:26:42.289Z,99418.00
2023-11-25T18:29:09.839Z,99430.00
2023-11-25T18:31:37.438Z,99437.00
2023-11-25T18:34:05.196Z,99437.00
2023-11-25T18:36:32.513Z,99438.00
2023-11-25T18:39:02.273Z,99436.00
2023-11-25T18:41:29.609Z,99439.00
2023-11-25T18:43:57.063Z,99444.00
2023-11-25T18:46:25.902Z,99459.00
2023-11-25T18:48:53.755Z,99458.00
2023-11-25T18:51:21.286Z,99467.00
2023-11-25T18:53:48.717Z,99469.00
2023-11-25T18:56:16.279Z,99472.00
2023-11-25T18:58:43.934Z,99486.00
2023-11-25T19:01:11.554Z,99475.00
2023-11-25T19:03:39.024Z,99481.00
2023-11-25T19:06:06.832Z,99490.00
2023-11-25T19:08:34.848Z,99481.00
2023-11-25T19:11:02.278Z,99497.00
2023-11-25T19:13:29.851Z,99496.00
2023-11-25T19:15:58.424Z,99498.00
2023-11-25T19:18:25.954Z,99510.00
2023-11-25T19:20:53.429Z,99516.00
2023-11-25T19:23:21.505Z,99526.00
2023-11-25T19:25:49.311Z,99530.00
2023-11-25T19:28:16.748Z,99533.00
2023-11-25T19:30:44.360Z,99531.00
2023-11-25T19:33:11.986Z,99542.00
2023-11-25T19:35:39.454Z,99546.00
2023-11-25T19:38:08.516Z,99555.00
2023-11-25T19:40:36.205Z,99564.00
2023-11-25T19:43:03.528Z,99569.00
2023-11-25T19:45:31.041Z,99575.00
2023-11-25T19:48:01.860Z,99571.00
2023-11-25T19:50:29.358Z,99579.00
2023-11-25T19:52:59.659Z,99581.00
2023-11-25T19:55:27.129Z,99584.00
2023-11-25T19:57:56.927Z,99580.00
2023-11-25T20:00:25.365Z,99573.00
2023-11-25T20:02:52.935Z,99582.00
2023-11-25T20:05:21.510Z,99576.00
2023-11-25T20:07:49.641Z,99582.00
2023-11-25T20:10:20.684Z,99589.00
2023-11-25T20:12:48.949Z,99588.00
2023-11-25T20:15:19.712Z,99593.00
2023-11-25T20:17:47.330Z,99589.00
2023-11-25T20:20:15.809Z,99596.00
2023-11-25T20:22:44.251Z,99601.00
2023-11-25T20:25:11.971Z,99604.00
2023-11-25T20:27:39.634Z,99606.00
2023-11-25T20:30:07.838Z,99619.00
2023-11-25T20:32:37.900Z,99624.00
2023-11-25T20:35:05.904Z,99629.00
2023-11-25T20:37:33.972Z,99631.00
2023-11-25T20:40:02.278Z,99640.00
2023-11-25T20:42:30.028Z,99637.00
2023-11-25T20:44:57.623Z,99646.00
2023-11-25T20:47:25.097Z,99642.00
2023-11-25T20:49:52.676Z,99647.00
2023-11-25T20:52:20.186Z,99652.00
2023-11-25T20:54:47.498Z,99649.00
2023-11-25T20:57:15.617Z,99637.00
2023-11-25T20:59:43.555Z,99650.00
2023-11-25T21:02:12.003Z,99652.00
2023-11-25T21:04:39.754Z,99655.00
2023-11-25T21:07:07.371Z,99656.00
2023-11-25T21:09:34.862Z,99665.00
2023-11-25T21:12:02.217Z,99664.00
2023-11-25T21:14:30.529Z,99666.00
2023-11-25T21:16:59.861Z,99679.00
2023-11-25T21:19:27.670Z,99675.00
2023-11-25T21:21:55.271Z,99677.00
2023-11-25T21:24:22.799Z,99680.00
2023-11-25T21:26:50.226Z,99691.00
2023-11-25T21:29:17.809Z,99691.00
2023-11-25T21:31:48.142Z,99689.00
2023-11-25T21:34:16.979Z,99692.00
2023-11-25T21:36:46.484Z,99692.00
2023-11-25T21:39:15.697Z,99690.00
2023-11-25T21:41:43.285Z,99691.00
2023-11-25T21:44:10.848Z,99693.00
2023-11-25T21:46:38.327Z,99699.00
2023-11-25T21:49:05.809Z,99703.00
2023-11-25T21:51:36.286Z,99695.00
2023-11-25T21:54:03.955Z,99698.00
2023-11-25T21:56:32.858Z,99696.00
2023-11-25T21:59:00.628Z,99694.00
2023-11-25T22:01:28.094Z,99697.00
2023-11-25T22:03:55.836Z,99701.00
2023-11-25T22:06:25.315Z,99703.00
2023-11-25T22:08:52.753Z,99712.00
2023-11-25T22:11:24.762Z,99718.00
2023-11-25T22:13:52.813Z,99717.00
2023-11-25T22:16:20.786Z,99725.00
2023-11-25T22:18:49.144Z,99723.00
2023-11-25T22:21:21.554Z,99720.00
2023-11-25T22:23:49.486Z,99724.00
2023-11-25T22:26:35.630Z,99724.00
2023-11-25T22:29:05.561Z,99730.00
2023-11-25T22:31:33.369Z,99730.00
2023-11-25T22:34:00.661Z,99729.00
2023-11-25T22:36:29.141Z,99728.00
2023-11-25T22:38:58.339Z,99731.00
2023-11-25T22:41:25.939Z,99736.00
2023-11-25T22:43:55.944Z,99732.00
2023-11-25T22:46:24.719Z,99738.00
2023-11-25T22:48:53.455Z,99726.00
2023-11-25T22:51:24.621Z,99736.00
2023-11-25T22:53:52.791Z,99728.00
2023-11-25T22:56:20.315Z,99731.00
2023-11-25T22:58:47.810Z,99725.00
2023-11-25T23:01:16.148Z,99734.00
2023-11-25T23:03:45.511Z,99735.00
2023-11-25T23:06:13.333Z,99732.00
2023-11-25T23:08:45.283Z,99732.00
2023-11-25T23:11:12.853Z,99732.00
2023-11-25T23:13:40.343Z,99728.00
2023-11-25T23:16:08.610Z,99735.00
2023-11-25T23:18:35.948Z,99734.00
2023-11-25T23:21:03.718Z,99729.00
2023-11-25T23:23:38.235Z,99735.00
2023-11-25T23:26:10.873Z,99730.00
2023-11-25T23:28:38.655Z,99729.00
2023-11-25T23:31:06.147Z,99734.00
2023-11-25T23:33:33.592Z,99736.00
2023-11-25T23:36:01.287Z,99738.00
2023-11-25T23:38:28.878Z,99736.00
2023-11-25T23:40:56.420Z,99736.00
2023-11-25T23:43:23.899Z,99735.00
2023-11-25T23:45:52.119Z,99741.00
2023-11-25T23:48:22.032Z,99738.00
2023-11-25T23:50:49.650Z,99744.00
2023-11-25T23:53:18.775Z,99749.00
2023-11-25T23:55:46.219Z,99741.00
2023-11-25T23:58:14.268Z,99731.00
